createdAt,value
2019-01-09T00:08:06.604Z,1.8
2019-01-09T00:13:01.277Z,1.8
2019-01-09T00:18:01.281Z,1.9
2019-01-09T00:33:01.388Z,2.0
2019-01-09T00:38:01.321Z,2.0
2019-01-09T00:43:01.383Z,1.8
2019-01-09T00:48:01.306Z,1.8
2019-01-09T01:03:01.405Z,1.9
2019-01-09T01:08:01.305Z,2.0
2019-01-09T01:25:00.564Z,1.8
2019-01-09T01:30:00.630Z,1.9
2019-01-09T01:45:00.553Z,1.9
2019-01-09T02:00:00.566Z,2.1
2019-01-09T02:15:01.009Z,0.9
2019-01-09T02:20:01.234Z,1.4
2019-01-09T02:25:01.003Z,1.6
2019-01-09T02:30:00.941Z,1.7
2019-01-09T02:35:01.604Z,1.7
2019-01-09T02:40:00.876Z,1.9
2019-01-09T02:45:01.006Z,1.9
2019-01-09T02:55:01.046Z,1.9
2019-01-09T03:00:00.971Z,2.0
2019-01-09T03:10:01.682Z,2.1
2019-01-09T03:15:00.930Z,2.3
2019-01-09T03:20:00.895Z,2.5
2019-01-09T03:25:01.090Z,2.4
2019-01-09T03:30:00.895Z,2.4
2019-01-09T03:40:00.920Z,2.1
2019-01-09T03:45:01.058Z,2.0
2019-01-09T03:50:01.799Z,2.2
2019-01-09T04:00:01.058Z,2.4
2019-01-09T04:15:00.972Z,2.2
2019-01-09T04:25:00.915Z,2.1
2019-01-09T04:30:00.916Z,2.1
2019-01-09T04:40:01.046Z,1.8
2019-01-09T04:45:00.952Z,2.0
2019-01-09T04:50:01.181Z,2.0
2019-01-09T04:55:00.951Z,1.8
2019-01-09T05:00:00.974Z,1.9
2019-01-09T05:10:01.053Z,1.8
2019-01-09T05:15:01.041Z,1.8
2019-01-09T05:20:00.990Z,1.9
2019-01-09T05:25:01.342Z,1.8
2019-01-09T05:30:00.938Z,1.9
2019-01-09T05:35:01.108Z,1.6
2019-01-09T05:40:05.929Z,1.6
2019-01-09T05:45:01.069Z,1.6
2019-01-09T05:50:00.937Z,1.6
2019-01-09T06:00:01.161Z,1.8
2019-01-09T06:05:01.058Z,1.8
2019-01-09T06:10:00.975Z,1.8
2019-01-09T06:15:00.986Z,1.8
2019-01-09T06:25:01.057Z,1.7
2019-01-09T06:30:00.956Z,1.7
2019-01-09T06:35:01.025Z,1.8
2019-01-09T06:45:01.486Z,1.7
2019-01-09T06:50:00.948Z,2.1
2019-01-09T06:55:01.161Z,2.2
2019-01-09T07:00:00.965Z,2.2
2019-01-09T07:05:01.240Z,2.2
2019-01-09T07:10:01.598Z,2.5
2019-01-09T07:15:01.127Z,2.2
2019-01-09T07:20:00.991Z,2.4
2019-01-09T07:30:02.111Z,2.4
2019-01-09T07:35:01.079Z,2.1
2019-01-09T07:45:01.040Z,1.9
2019-01-09T07:50:00.996Z,1.8
2019-01-09T08:00:01.056Z,1.7
2019-01-09T08:05:06.122Z,1.8
2019-01-09T08:10:01.011Z,1.8
2019-01-09T08:15:01.141Z,1.7
2019-01-09T08:30:01.055Z,1.6
2019-01-09T08:40:06.141Z,2.1
2019-01-09T08:45:01.063Z,2.4
2019-01-09T08:50:00.994Z,2.5
2019-01-09T09:00:01.069Z,2.4
2019-01-09T09:05:01.066Z,2.1
2019-01-09T09:10:01.003Z,1.9
2019-01-09T09:15:01.001Z,1.9
2019-01-09T09:20:01.014Z,2.0
2019-01-09T09:30:01.060Z,2.0
2019-01-09T09:35:01.085Z,2.1
2019-01-09T09:45:01.079Z,2.1
2019-01-09T09:55:01.182Z,1.9
2019-01-09T10:00:01.035Z,1.8
2019-01-09T10:15:01.148Z,2.0
2019-01-09T10:30:01.115Z,1.9
2019-01-09T10:40:01.191Z,1.9
2019-01-09T10:45:01.102Z,1.9
2019-01-09T11:00:01.126Z,2.0
2019-01-09T11:05:01.165Z,2.0
2019-01-09T11:10:01.040Z,2.0
2019-01-09T11:15:01.106Z,1.9
2019-01-09T11:25:02.027Z,2.0
2019-01-09T11:30:01.056Z,2.0
2019-01-09T11:35:01.056Z,2.0
2019-01-09T11:40:01.080Z,2.0
2019-01-09T11:45:01.123Z,2.1
2019-01-09T11:50:01.113Z,2.0
2019-01-09T11:55:01.120Z,2.0
2019-01-09T12:00:01.066Z,2.0
2019-01-09T12:05:01.228Z,2.1
2019-01-09T12:10:01.254Z,2.0
2019-01-09T12:15:01.128Z,2.0
2019-01-09T12:20:02.382Z,2.1
2019-01-09T12:25:01.187Z,2.3
2019-01-09T12:30:01.070Z,2.2
2019-01-09T12:35:01.198Z,2.2
2019-01-09T12:45:01.135Z,2.3
2019-01-09T12:55:01.137Z,2.5
2019-01-09T13:00:01.221Z,2.5
2019-01-09T13:05:01.205Z,2.5
2019-01-09T13:10:01.177Z,2.3
2019-01-09T13:15:01.146Z,2.2
2019-01-09T13:20:01.081Z,2.1
2019-01-09T13:30:01.285Z,1.9
2019-01-09T13:40:01.232Z,2.1
2019-01-09T13:45:01.155Z,2.1
2019-01-09T13:55:01.160Z,2.2
2019-01-09T14:00:01.097Z,2.1
2019-01-09T14:05:01.221Z,2.0
2019-01-09T14:10:01.295Z,2.1
2019-01-09T14:15:01.280Z,2.2
2019-01-09T14:25:01.255Z,2.2
2019-01-09T14:30:01.269Z,2.2
2019-01-09T14:35:01.206Z,2.1
2019-01-09T14:40:02.205Z,2.0
2019-01-09T14:45:01.172Z,2.0
2019-01-09T14:50:01.982Z,1.8
2019-01-09T14:55:01.291Z,1.9
2019-01-09T15:00:01.180Z,1.9
2019-01-09T15:10:01.186Z,2.1
2019-01-09T15:15:01.121Z,2.1
2019-01-09T15:20:02.335Z,2.0
2019-01-09T15:25:01.241Z,1.9
2019-01-09T15:30:01.115Z,1.9
2019-01-09T15:35:01.241Z,1.7
2019-01-09T15:40:06.354Z,2.0
2019-01-09T15:45:04.280Z,2.0
2019-01-09T15:55:01.205Z,2.1
2019-01-09T16:00:01.264Z,2.1
2019-01-09T16:05:01.128Z,1.9
2019-01-09T16:10:01.135Z,1.8
2019-01-09T16:15:01.257Z,1.9
2019-01-09T16:20:01.125Z,1.8
2019-01-09T16:25:01.142Z,1.7
2019-01-09T16:30:01.171Z,1.7
2019-01-09T16:40:01.337Z,1.8
2019-01-09T16:45:01.234Z,1.9
2019-01-09T16:50:01.143Z,1.9
2019-01-09T16:55:01.388Z,1.9
2019-01-09T17:00:01.265Z,1.8
2019-01-09T17:10:01.381Z,2.2
2019-01-09T17:15:01.258Z,2.2
2019-01-09T17:25:01.325Z,2.2
2019-01-09T17:30:02.380Z,2.1
2019-01-09T17:35:01.294Z,1.8
2019-01-09T17:45:01.233Z,1.8
2019-01-09T18:00:01.399Z,1.8
2019-01-09T18:10:01.269Z,1.9
2019-01-09T18:15:01.407Z,2.0
2019-01-09T18:25:01.241Z,2.1
2019-01-09T18:30:01.488Z,2.0
2019-01-09T18:35:01.464Z,1.9
2019-01-09T18:40:01.293Z,1.9
2019-01-09T18:45:01.286Z,2.2
2019-01-09T18:55:01.291Z,2.1
2019-01-09T19:00:01.237Z,2.1
2019-01-09T19:05:01.356Z,2.4
2019-01-09T19:10:01.231Z,2.0
2019-01-09T19:15:01.248Z,2.0
2019-01-09T19:25:01.300Z,1.9
2019-01-09T19:30:01.204Z,1.7
2019-01-09T19:35:01.588Z,1.8
2019-01-09T19:45:01.334Z,1.8
2019-01-09T19:55:02.436Z,1.7
2019-01-09T20:00:01.211Z,1.6
2019-01-09T20:15:01.385Z,1.6
2019-01-09T20:20:01.315Z,1.6
2019-01-09T20:30:01.423Z,1.7
2019-01-09T20:35:01.583Z,1.7
2019-01-09T20:45:06.450Z,1.8
2019-01-09T20:50:01.410Z,2.0
2019-01-09T21:00:06.633Z,2.1
2019-01-09T21:10:01.310Z,2.1
2019-01-09T21:15:06.386Z,2.0
2019-01-09T21:20:06.265Z,2.1
2019-01-09T21:25:06.336Z,2.3
2019-01-09T21:30:01.272Z,2.2
2019-01-09T21:35:06.326Z,2.1
2019-01-09T21:45:06.328Z,2.1
2019-01-09T21:50:01.263Z,1.8
2019-01-09T22:00:01.343Z,1.6
2019-01-09T22:05:01.293Z,1.5
2019-01-09T22:15:01.389Z,1.5
2019-01-09T22:20:01.265Z,1.5
2019-01-09T22:25:01.331Z,1.3
2019-01-09T22:30:01.275Z,1.4
2019-01-09T22:45:01.407Z,1.3
2019-01-09T22:50:01.271Z,1.6
2019-01-09T23:00:01.609Z,1.6
2019-01-09T23:15:01.532Z,1.7
2019-01-09T23:20:01.282Z,1.8
2019-01-09T23:25:01.282Z,1.7
2019-01-09T23:30:01.286Z,1.6
2019-01-09T23:45:01.404Z,1.5
